createdAt,value
2022-12-08T00:00:09.177Z,-1.42
2022-12-08T00:03:15.460Z,-1.55
2022-12-08T00:06:45.017Z,-1.62
2022-12-08T00:09:47.471Z,-1.76
2022-12-08T00:12:50.572Z,-1.65
2022-12-08T00:15:53.326Z,-1.56
2022-12-08T00:18:56.772Z,-1.47
2022-12-08T00:21:59.812Z,-1.63
2022-12-08T00:25:02.765Z,-1.60
2022-12-08T00:28:05.795Z,-1.59
2022-12-08T00:31:10.236Z,-1.55
2022-12-08T00:34:14.763Z,-1.52
2022-12-08T00:37:17.672Z,-1.61
2022-12-08T00:40:20.153Z,-1.54
2022-12-08T00:43:23.089Z,-1.67
2022-12-08T00:46:25.620Z,-1.62
2022-12-08T00:49:28.738Z,-1.54
2022-12-08T00:52:31.309Z,-1.63
2022-12-08T00:55:34.920Z,-1.44
2022-12-08T00:58:37.371Z,-1.46
2022-12-08T01:01:40.374Z,-1.42
2022-12-08T01:04:43.221Z,-1.33
2022-12-08T01:07:46.403Z,-1.14
2022-12-08T01:10:48.861Z,-1.18
2022-12-08T01:13:51.758Z,-1.21
2022-12-08T01:16:54.270Z,-1.12
2022-12-08T01:19:57.239Z,-1.21
2022-12-08T01:22:59.688Z,-1.23
2022-12-08T01:26:07.216Z,-1.20
2022-12-08T01:29:10.409Z,-1.26
2022-12-08T01:32:13.292Z,-1.32
2022-12-08T01:35:16.055Z,-1.33
2022-12-08T01:38:19.611Z,-1.40
2022-12-08T01:41:31.280Z,-1.39
2022-12-08T01:44:34.298Z,-1.30
2022-12-08T01:47:42.666Z,-1.39
2022-12-08T01:50:48.392Z,-1.48
2022-12-08T01:53:51.309Z,-1.47
2022-12-08T01:57:01.443Z,-1.35
2022-12-08T02:00:09.130Z,-1.41
2022-12-08T02:03:16.635Z,-1.34
2022-12-08T02:06:20.250Z,-1.23
2022-12-08T02:09:23.236Z,-1.30
2022-12-08T02:12:25.796Z,-1.26
2022-12-08T02:15:39.334Z,-1.23
2022-12-08T02:19:14.718Z,-1.28
2022-12-08T02:22:52.120Z,-1.37
2022-12-08T02:26:09.583Z,-1.32
2022-12-08T02:29:34.003Z,-1.44
2022-12-08T02:32:39.773Z,-1.26
2022-12-08T02:35:54.648Z,-1.40
2022-12-08T02:39:37.261Z,-1.20
2022-12-08T02:42:57.047Z,-1.35
2022-12-08T02:46:05.289Z,-1.28
2022-12-08T02:49:08.259Z,-1.39
2022-12-08T02:52:14.321Z,-1.18
2022-12-08T02:55:26.215Z,-1.29
2022-12-08T02:58:48.207Z,-1.20
2022-12-08T03:02:12.301Z,-1.24
2022-12-08T03:05:14.802Z,-1.26
2022-12-08T03:08:47.030Z,-1.27
2022-12-08T03:12:07.797Z,-1.36
2022-12-08T03:15:16.362Z,-1.35
2022-12-08T03:18:24.008Z,-1.35
2022-12-08T03:21:27.386Z,-1.53
2022-12-08T03:24:40.769Z,-1.57
2022-12-08T03:27:44.054Z,-1.35
2022-12-08T03:30:51.034Z,-1.28
2022-12-08T03:33:57.160Z,-1.21
2022-12-08T03:37:01.530Z,-1.18
2022-12-08T03:40:06.859Z,-1.30
2022-12-08T03:43:10.009Z,-1.49
2022-12-08T03:46:13.067Z,-1.63
2022-12-08T03:49:15.620Z,-1.39
2022-12-08T03:52:18.527Z,-1.41
2022-12-08T03:55:21.621Z,-1.48
2022-12-08T03:58:24.703Z,-1.22
2022-12-08T04:01:28.256Z,-1.31
2022-12-08T04:04:31.571Z,-1.51
2022-12-08T04:07:34.176Z,-1.41
2022-12-08T04:10:37.131Z,-1.29
2022-12-08T04:13:41.098Z,-1.44
2022-12-08T04:16:43.923Z,-1.55
2022-12-08T04:19:46.420Z,-1.60
2022-12-08T04:22:49.649Z,-1.80
2022-12-08T04:25:53.240Z,-1.83
2022-12-08T04:28:56.055Z,-1.62
2022-12-08T04:31:58.910Z,-1.90
2022-12-08T04:35:01.809Z,-1.83
2022-12-08T04:38:04.666Z,-1.86
2022-12-08T04:41:07.751Z,-1.89
2022-12-08T04:44:10.232Z,-1.89
2022-12-08T04:47:13.544Z,-2.16
2022-12-08T04:50:16.451Z,-2.12
2022-12-08T04:53:20.289Z,-1.91
2022-12-08T04:56:22.992Z,-2.04
2022-12-08T04:59:25.642Z,-1.88
2022-12-08T05:02:28.592Z,-2.04
2022-12-08T05:05:31.315Z,-2.07
2022-12-08T05:08:34.043Z,-2.16
2022-12-08T05:11:36.975Z,-2.12
2022-12-08T05:14:39.516Z,-2.15
2022-12-08T05:17:42.731Z,-2.08
2022-12-08T05:20:45.252Z,-2.00
2022-12-08T05:23:48.297Z,-1.96
2022-12-08T05:26:50.777Z,-1.95
2022-12-08T05:29:53.596Z,-1.99
2022-12-08T05:32:56.074Z,-1.99
2022-12-08T05:35:58.864Z,-2.05
2022-12-08T05:39:01.426Z,-2.04
2022-12-08T05:42:04.237Z,-1.88
2022-12-08T05:45:07.338Z,-2.00
2022-12-08T05:48:10.191Z,-2.02
2022-12-08T05:51:23.921Z,-1.89
2022-12-08T05:54:26.971Z,-1.81
2022-12-08T05:57:29.532Z,-1.80
2022-12-08T06:00:35.020Z,-1.89
2022-12-08T06:03:38.216Z,-1.89
2022-12-08T06:06:40.912Z,-1.97
2022-12-08T06:09:43.694Z,-1.73
2022-12-08T06:12:46.437Z,-1.78
2022-12-08T06:15:49.408Z,-1.76
2022-12-08T06:18:52.424Z,-1.74
2022-12-08T06:21:54.953Z,-1.66
2022-12-08T06:24:57.684Z,-1.53
2022-12-08T06:28:00.400Z,-1.60
2022-12-08T06:31:16.001Z,-1.55
2022-12-08T06:34:18.801Z,-1.63
2022-12-08T06:37:21.482Z,-1.45
2022-12-08T06:40:24.228Z,-1.31
2022-12-08T06:43:27.795Z,-1.05
2022-12-08T06:46:30.385Z,-0.95
2022-12-08T06:49:33.311Z,-0.90
2022-12-08T06:52:43.007Z,-0.78
2022-12-08T06:56:00.350Z,-0.25
2022-12-08T06:59:04.257Z,0.55
2022-12-08T07:02:07.505Z,0.80
2022-12-08T07:05:10.743Z,1.53
2022-12-08T07:08:13.379Z,1.66
2022-12-08T07:11:21.112Z,1.41
2022-12-08T07:14:25.023Z,0.85
2022-12-08T07:17:27.900Z,0.29
2022-12-08T07:20:30.639Z,-0.22
2022-12-08T07:23:33.351Z,-0.36
2022-12-08T07:26:35.989Z,-0.24
2022-12-08T07:29:38.827Z,-0.33
2022-12-08T07:32:41.346Z,-0.46
2022-12-08T07:35:49.103Z,-0.31
2022-12-08T07:38:55.596Z,-0.38
2022-12-08T07:41:58.584Z,-0.40
2022-12-08T07:45:02.561Z,-0.37
2022-12-08T07:48:06.536Z,-0.30
2022-12-08T07:51:10.643Z,-0.48
2022-12-08T07:54:14.015Z,-0.40
2022-12-08T07:57:16.473Z,-0.12
2022-12-08T08:00:19.923Z,0.00
2022-12-08T08:03:22.513Z,0.13
2022-12-08T08:06:25.796Z,0.30
2022-12-08T08:09:28.456Z,0.43
2022-12-08T08:12:32.640Z,0.78
2022-12-08T08:15:36.165Z,0.59
2022-12-08T08:18:40.220Z,0.46
2022-12-08T08:21:45.891Z,0.70
2022-12-08T08:24:49.179Z,0.65
2022-12-08T08:27:51.880Z,0.62
2022-12-08T08:30:55.313Z,0.79
2022-12-08T08:33:58.021Z,0.90
2022-12-08T08:37:00.878Z,0.84
2022-12-08T08:40:04.111Z,0.95
2022-12-08T08:43:07.551Z,1.06
2022-12-08T08:46:10.269Z,0.89
2022-12-08T08:49:13.264Z,0.98
2022-12-08T08:52:15.776Z,1.08
2022-12-08T08:55:18.847Z,1.24
2022-12-08T08:58:21.444Z,1.16
2022-12-08T09:01:27.790Z,1.03
2022-12-08T09:04:30.497Z,1.03
2022-12-08T09:07:33.803Z,1.17
2022-12-08T09:10:36.554Z,1.07
2022-12-08T09:13:39.417Z,1.08
2022-12-08T09:16:48.566Z,1.28
2022-12-08T09:19:51.295Z,1.32
2022-12-08T09:22:53.890Z,1.31
2022-12-08T09:25:56.790Z,1.57
2022-12-08T09:28:59.481Z,1.77
2022-12-08T09:32:02.220Z,1.62
2022-12-08T09:35:05.205Z,1.64
2022-12-08T09:38:08.032Z,1.50
2022-12-08T09:41:36.474Z,1.70
2022-12-08T09:44:59.871Z,1.73
2022-12-08T09:48:15.279Z,1.75
2022-12-08T09:51:18.067Z,1.87
2022-12-08T09:54:47.115Z,1.65
2022-12-08T09:57:57.803Z,1.68
2022-12-08T10:01:01.028Z,1.78
2022-12-08T10:04:04.789Z,1.82
2022-12-08T10:07:25.797Z,1.86
2022-12-08T10:10:57.369Z,1.94
2022-12-08T10:14:28.047Z,1.97
2022-12-08T10:17:35.841Z,2.42
2022-12-08T10:20:42.225Z,2.67
2022-12-08T10:23:49.591Z,2.76
2022-12-08T10:26:52.273Z,2.65
2022-12-08T10:29:55.115Z,2.91
2022-12-08T10:32:57.815Z,2.82
2022-12-08T10:36:04.724Z,2.63
2022-12-08T10:39:43.909Z,2.87
2022-12-08T10:42:51.399Z,2.75
2022-12-08T10:45:54.544Z,3.11
2022-12-08T10:49:12.399Z,2.74
2022-12-08T10:52:25.297Z,2.77
2022-12-08T10:55:30.223Z,2.78
2022-12-08T10:58:41.025Z,2.75
2022-12-08T11:01:48.862Z,2.72
2022-12-08T11:05:01.779Z,2.31
2022-12-08T11:08:06.115Z,2.28
2022-12-08T11:11:09.035Z,2.50
2022-12-08T11:14:16.881Z,3.06
2022-12-08T11:17:22.357Z,3.31
2022-12-08T11:20:25.379Z,3.42
2022-12-08T11:23:30.004Z,3.45
2022-12-08T11:26:35.467Z,3.26
2022-12-08T11:29:46.391Z,3.48
2022-12-08T11:32:55.157Z,3.83
2022-12-08T11:36:05.876Z,4.15
2022-12-08T11:39:12.550Z,4.20
2022-12-08T11:42:18.660Z,4.22
2022-12-08T11:45:26.959Z,4.61
2022-12-08T11:48:52.666Z,4.61
2022-12-08T11:52:03.172Z,4.33
2022-12-08T11:55:25.934Z,4.37
2022-12-08T11:58:39.075Z,4.43
2022-12-08T12:01:42.830Z,4.36
2022-12-08T12:04:57.653Z,4.15
2022-12-08T12:08:37.790Z,4.25
2022-12-08T12:12:07.212Z,4.03
2022-12-08T12:16:00.004Z,4.04
2022-12-08T12:19:18.044Z,3.60
2022-12-08T12:22:23.383Z,3.69
2022-12-08T12:25:27.063Z,3.56
2022-12-08T12:28:49.909Z,3.58
2022-12-08T12:31:58.368Z,3.46
2022-12-08T12:35:01.463Z,3.42
2022-12-08T12:38:30.893Z,3.42
2022-12-08T12:42:00.064Z,3.36
2022-12-08T12:45:16.435Z,3.27
2022-12-08T12:48:25.309Z,3.34
2022-12-08T12:51:43.347Z,3.42
2022-12-08T12:54:51.929Z,3.11
2022-12-08T12:57:57.401Z,3.08
2022-12-08T13:01:12.653Z,3.10
2022-12-08T13:04:17.078Z,3.07
2022-12-08T13:07:22.680Z,3.03
2022-12-08T13:10:39.621Z,2.97
2022-12-08T13:14:01.338Z,2.92
2022-12-08T13:17:11.577Z,2.95
2022-12-08T13:20:25.852Z,2.96
2022-12-08T13:23:50.573Z,2.94
2022-12-08T13:27:04.965Z,2.89
2022-12-08T13:30:42.551Z,2.80
2022-12-08T13:33:46.966Z,2.87
2022-12-08T13:36:57.715Z,2.83
2022-12-08T13:40:14.429Z,2.73
2022-12-08T13:44:02.494Z,2.72
2022-12-08T13:47:33.263Z,2.62
2022-12-08T13:57:43.093Z,2.34
2022-12-08T14:01:15.165Z,2.25
2022-12-08T14:07:44.135Z,2.09
2022-12-08T14:10:53.331Z,2.00
2022-12-08T14:13:56.024Z,1.96
2022-12-08T14:17:03.645Z,1.91
2022-12-08T14:20:12.383Z,1.98
2022-12-08T14:23:17.438Z,1.98
2022-12-08T14:26:20.123Z,1.92
2022-12-08T14:29:49.934Z,1.85
2022-12-08T14:32:58.898Z,1.89
2022-12-08T14:36:01.820Z,1.90
2022-12-08T14:39:04.452Z,1.91
2022-12-08T14:42:07.828Z,1.90
2022-12-08T14:45:13.668Z,1.82
2022-12-08T14:48:33.726Z,1.79
2022-12-08T14:51:36.942Z,1.78
2022-12-08T14:54:41.093Z,1.88
2022-12-08T14:57:48.684Z,1.76
2022-12-08T15:00:57.004Z,1.72
2022-12-08T15:04:14.061Z,1.58
2022-12-08T15:07:19.947Z,1.65
2022-12-08T15:10:30.887Z,1.65
2022-12-08T15:13:33.777Z,1.67
2022-12-08T15:16:36.527Z,1.60
2022-12-08T15:19:40.316Z,1.46
2022-12-08T15:22:42.716Z,1.52
2022-12-08T15:25:45.944Z,1.31
2022-12-08T15:28:48.479Z,1.35
2022-12-08T15:31:53.505Z,1.27
2022-12-08T15:34:56.145Z,1.27
2022-12-08T15:37:58.868Z,1.28
2022-12-08T15:41:01.690Z,1.25
2022-12-08T15:44:04.306Z,1.26
2022-12-08T15:47:16.779Z,1.19
2022-12-08T15:50:21.799Z,1.36
2022-12-08T15:53:24.496Z,1.27
2022-12-08T15:56:28.641Z,1.31
2022-12-08T15:59:31.915Z,1.24
2022-12-08T16:03:05.018Z,1.26
2022-12-08T16:06:50.866Z,1.16
2022-12-08T16:09:36.951Z,1.15
2022-12-08T16:16:26.836Z,1.07
2022-12-08T16:19:29.581Z,1.01
2022-12-08T16:26:20.385Z,0.99
2022-12-08T16:29:20.806Z,0.94
2022-12-08T16:32:23.679Z,0.86
2022-12-08T16:35:26.522Z,0.88
2022-12-08T16:38:29.135Z,0.81
2022-12-08T16:41:50.116Z,0.84
2022-12-08T16:44:53.007Z,0.82
2022-12-08T16:48:00.782Z,0.78
2022-12-08T16:51:04.577Z,0.76
2022-12-08T16:54:07.487Z,0.78
2022-12-08T16:57:12.064Z,0.88
2022-12-08T17:00:19.371Z,0.88
2022-12-08T17:03:22.020Z,0.87
2022-12-08T17:06:24.740Z,0.85
2022-12-08T17:09:28.601Z,0.85
2022-12-08T17:12:31.960Z,0.81
2022-12-08T17:15:34.903Z,0.84
2022-12-08T17:18:38.445Z,0.82
2022-12-08T17:21:41.799Z,0.85
2022-12-08T17:24:44.541Z,0.81
2022-12-08T17:27:47.497Z,0.82
2022-12-08T17:30:50.290Z,0.84
2022-12-08T17:33:52.931Z,0.77
2022-12-08T17:36:56.514Z,0.75
2022-12-08T17:39:59.653Z,0.75
2022-12-08T17:43:02.343Z,0.74
2022-12-08T17:46:05.653Z,0.76
2022-12-08T17:49:20.441Z,0.77
2022-12-08T17:52:23.074Z,0.75
2022-12-08T17:55:26.149Z,0.78
2022-12-08T17:58:28.736Z,0.75
2022-12-08T18:01:34.660Z,0.78
2022-12-08T18:04:37.273Z,0.80
2022-12-08T18:07:40.192Z,0.81
2022-12-08T18:10:43.167Z,0.85
2022-12-08T18:13:48.299Z,0.85
2022-12-08T18:16:51.174Z,0.87
2022-12-08T18:19:53.978Z,0.91
2022-12-08T18:22:56.637Z,0.90
2022-12-08T18:25:59.685Z,0.92
2022-12-08T18:29:02.166Z,0.94
2022-12-08T18:32:05.081Z,1.00
2022-12-08T18:35:08.682Z,0.98
2022-12-08T18:38:11.395Z,0.97
2022-12-08T18:41:18.819Z,0.92
2022-12-08T18:44:21.759Z,0.94
2022-12-08T18:47:24.761Z,0.92
2022-12-08T18:50:27.775Z,0.91
2022-12-08T18:53:31.636Z,0.91
2022-12-08T18:56:37.060Z,0.95
2022-12-08T18:59:39.934Z,0.88
2022-12-08T19:02:43.275Z,0.79
2022-12-08T19:05:45.944Z,0.77
2022-12-08T19:08:49.147Z,0.78
2022-12-08T19:11:52.353Z,0.76
2022-12-08T19:14:55.227Z,0.69
2022-12-08T19:17:58.396Z,0.54
2022-12-08T19:21:01.320Z,0.44
2022-12-08T19:24:04.685Z,0.45
2022-12-08T19:27:07.775Z,0.46
2022-12-08T19:30:11.008Z,0.43
2022-12-08T19:33:14.091Z,0.46
2022-12-08T19:36:19.140Z,0.52
2022-12-08T19:39:41.882Z,0.54
2022-12-08T19:43:04.273Z,0.55
2022-12-08T19:46:08.792Z,0.63
2022-12-08T19:49:11.805Z,0.71
2022-12-08T19:52:15.152Z,0.77
2022-12-08T19:55:17.942Z,0.66
2022-12-08T19:58:20.932Z,0.73
2022-12-08T20:01:23.809Z,0.75
2022-12-08T20:04:27.714Z,0.60
2022-12-08T20:07:30.567Z,0.60
2022-12-08T20:10:36.968Z,0.64
2022-12-08T20:13:44.693Z,0.70
2022-12-08T20:16:47.732Z,0.73
2022-12-08T20:19:51.010Z,0.72
2022-12-08T20:22:54.360Z,0.72
2022-12-08T20:25:57.895Z,0.69
2022-12-08T20:29:00.970Z,0.72
2022-12-08T20:32:04.067Z,0.75
2022-12-08T20:35:07.592Z,0.83
2022-12-08T20:38:11.230Z,0.84
2022-12-08T20:41:16.183Z,0.85
2022-12-08T20:44:19.188Z,0.92
2022-12-08T20:47:22.183Z,0.90
2022-12-08T20:50:25.545Z,0.94
2022-12-08T20:53:28.751Z,0.98
2022-12-08T20:56:32.762Z,1.03
2022-12-08T20:59:36.306Z,1.08
2022-12-08T21:02:45.087Z,1.10
2022-12-08T21:05:52.120Z,1.04
2022-12-08T21:08:55.008Z,1.04
2022-12-08T21:11:58.051Z,1.02
2022-12-08T21:15:01.007Z,1.03
2022-12-08T21:18:05.284Z,1.04
2022-12-08T21:21:12.273Z,1.03
2022-12-08T21:24:15.888Z,1.05
2022-12-08T21:27:18.751Z,1.05
2022-12-08T21:30:23.004Z,1.05
2022-12-08T21:33:25.555Z,1.10
2022-12-08T21:36:28.719Z,1.08
2022-12-08T21:39:32.739Z,1.13
2022-12-08T21:42:45.506Z,1.19
2022-12-08T21:45:48.190Z,1.23
2022-12-08T21:48:51.186Z,1.26
2022-12-08T21:51:54.069Z,1.29
2022-12-08T21:54:57.176Z,1.27
2022-12-08T21:58:01.008Z,1.31
2022-12-08T22:01:08.471Z,1.30
2022-12-08T22:04:12.557Z,1.28
2022-12-08T22:07:15.984Z,1.32
2022-12-08T22:10:21.064Z,1.31
2022-12-08T22:13:23.948Z,1.32
2022-12-08T22:16:26.589Z,1.34
2022-12-08T22:19:31.270Z,1.37
2022-12-08T22:22:34.939Z,1.45
2022-12-08T22:25:37.997Z,1.42
2022-12-08T22:28:42.574Z,1.36
2022-12-08T22:31:45.415Z,1.32
2022-12-08T22:34:47.838Z,1.30
2022-12-08T22:37:50.547Z,1.24
2022-12-08T22:40:53.371Z,1.26
2022-12-08T22:43:56.212Z,1.27
2022-12-08T22:46:58.859Z,1.36
2022-12-08T22:50:02.620Z,1.37
2022-12-08T22:53:05.410Z,1.34
2022-12-08T22:56:10.477Z,1.33
2022-12-08T22:59:13.169Z,1.26
2022-12-08T23:02:16.740Z,1.25
2022-12-08T23:05:19.582Z,1.35
2022-12-08T23:08:22.657Z,1.38
2022-12-08T23:11:28.981Z,1.42
2022-12-08T23:14:31.924Z,1.49
2022-12-08T23:17:34.854Z,1.50
2022-12-08T23:20:37.809Z,1.53
2022-12-08T23:23:41.077Z,1.54
2022-12-08T23:26:43.853Z,1.44
2022-12-08T23:29:46.708Z,1.39
2022-12-08T23:32:49.304Z,1.43
2022-12-08T23:35:58.281Z,1.43
2022-12-08T23:39:00.987Z,1.42
2022-12-08T23:42:03.801Z,1.42
2022-12-08T23:45:08.931Z,1.47
2022-12-08T23:48:11.729Z,1.48
2022-12-08T23:51:14.559Z,1.49
2022-12-08T23:54:17.489Z,1.45
2022-12-08T23:57:20.760Z,1.48
